Time;durP1;ratioP1;P1;durP2;ratioP2;P2;SDS_P1;SDS_P2;PMS_P1;PMS_P2;Temp;Humidity;BMP_temperature;BMP_pressure;BME280_temperature;BME280_humidity;BME280_pressure;Samples;Min_cycle;Max_cycle;Signal;HPM_P1;HPM_P2
2021/01/02 00:00:10;;;;;;;18.50;12.03;;;2.80;77.30;;;3.11;65.95;97046.25;5101193;28;20048;-48
2021/01/02 00:02:43;;;;;;;17.00;10.37;;;2.80;77.30;;;3.10;65.98;97046.38;5101315;28;20055;-47
2021/01/02 00:05:19;;;;;;;16.80;10.43;;;2.70;77.30;;;3.11;66.00;97042.81;5083477;28;20058;-46
2021/01/02 00:08:19;;;;;;;16.37;10.10;;;2.80;77.00;;;3.13;66.25;97046.97;5101513;28;20055;-46
2021/01/02 00:11:12;;;;;;;15.07;8.50;;;2.80;76.80;;;3.14;65.97;97039.91;5106223;28;20044;-46
2021/01/02 00:14:13;;;;;;;16.50;9.32;;;2.80;76.70;;;3.17;65.79;97046.72;5106244;28;20044;-46
2021/01/02 00:17:14;;;;;;;16.70;9.17;;;2.80;76.50;;;3.17;65.67;97041.47;5105616;28;20048;-45
2021/01/02 00:19:56;;;;;;;22.20;11.67;;;2.80;76.30;;;3.11;65.58;97041.00;5090017;28;20040;-48
2021/01/02 00:22:59;;;;;;;16.27;9.93;;;2.70;76.30;;;3.05;65.55;97049.41;5106225;28;20358;-45
2021/01/02 00:25:31;;;;;;;13.67;8.93;;;2.60;76.40;;;3.04;65.61;97041.66;5105637;28;20048;-46
2021/01/02 00:28:23;;;;;;;14.67;8.00;;;2.60;76.50;;;3.02;65.54;97054.09;5105995;28;20044;-46
2021/01/02 00:31:00;;;;;;;14.23;7.37;;;2.60;76.00;;;3.00;64.83;97048.13;5106016;28;20050;-46
2021/01/02 00:34:21;;;;;;;12.20;7.37;;;2.50;76.10;;;2.97;65.33;97049.22;5105869;28;20340;-46
2021/01/02 00:37:10;;;;;;;13.20;7.90;;;2.50;76.10;;;2.95;65.43;97051.97;5104781;28;20270;-46
2021/01/02 00:40:04;;;;;;;15.57;8.97;;;2.50;76.10;;;2.93;65.77;97043.41;5088791;28;20043;-48
2021/01/02 00:42:33;;;;;;;17.07;9.80;;;2.50;76.00;;;2.93;65.22;97042.56;5088546;28;20046;-47
2021/01/02 00:45:04;;;;;;;13.47;8.27;;;2.50;76.30;;;2.93;65.26;97043.41;5105133;28;20550;-47
2021/01/02 00:47:35;;;;;;;14.67;8.40;;;2.40;76.40;;;2.93;65.40;97048.66;5105621;28;20055;-47
2021/01/02 00:50:06;;;;;;;15.97;9.23;;;2.50;76.40;;;2.95;65.36;97043.28;5105635;28;20044;-47
2021/01/02 00:52:46;;;;;;;18.03;9.93;;;2.50;76.40;;;2.92;65.39;97043.50;5105462;28;20054;-45
2021/01/02 00:55:25;;;;;;;15.43;8.80;;;2.40;76.60;;;2.89;65.54;97047.25;5086504;28;20044;-46
2021/01/02 00:58:22;;;;;;;16.87;8.47;;;2.40;76.90;;;2.87;65.20;97040.41;5087038;28;20240;-48
2021/01/02 01:01:07;;;;;;;15.80;9.40;;;2.40;77.00;;;2.86;65.59;97041.41;5086959;28;20343;-45
2021/01/02 01:04:26;;;;;;;17.13;9.63;;;2.40;77.00;;;2.83;65.21;97045.13;5086986;28;20063;-47
2021/01/02 01:06:56;;;;;;;18.57;11.10;;;2.30;77.50;;;2.79;65.64;97040.22;5089655;28;20371;-48
2021/01/02 01:09:24;;;;;;;18.77;11.50;;;2.30;77.60;;;2.77;65.67;97042.97;5105224;28;20363;-48
2021/01/02 01:11:57;;;;;;;17.33;9.97;;;2.20;77.90;;;2.75;65.61;97044.91;5105209;28;20048;-46
2021/01/02 01:14:31;;;;;;;18.88;10.70;;;2.20;78.00;;;2.72;65.51;97046.00;5105400;28;20044;-45
2021/01/02 01:17:02;;;;;;;21.33;10.83;;;2.20;78.20;;;2.70;65.80;97040.03;5087010;28;20366;-47
2021/01/02 01:19:33;;;;;;;17.07;9.23;;;2.20;78.10;;;2.69;65.94;97042.78;5086757;28;20058;-46
2021/01/02 01:22:09;;;;;;;17.03;10.20;;;2.20;78.00;;;2.66;65.81;97041.25;5087326;28;20053;-48
2021/01/02 01:24:58;;;;;;;16.63;9.47;;;2.20;78.00;;;2.67;65.56;97052.59;5104361;28;20051;-46
2021/01/02 01:27:54;;;;;;;16.57;10.13;;;2.10;78.10;;;2.63;65.50;97048.56;5088364;28;20328;-47
2021/01/02 01:30:24;;;;;;;14.97;9.57;;;2.10;78.10;;;2.60;65.48;97049.66;5104467;28;20054;-47
2021/01/02 01:33:01;;;;;;;18.83;10.17;;;2.10;78.30;;;2.58;65.80;97053.34;5103191;28;20374;-46
2021/01/02 01:35:29;;;;;;;17.57;9.57;;;2.10;78.10;;;2.57;65.67;97063.03;5104072;28;20350;-46
2021/01/02 01:37:58;;;;;;;18.07;10.47;;;2.10;78.00;;;2.55;65.71;97062.31;5086029;28;20048;-46
2021/01/02 01:40:31;;;;;;;18.43;10.47;;;2.00;77.90;;;2.53;65.54;97062.44;5104108;28;20271;-46
2021/01/02 01:43:21;;;;;;;17.97;9.63;;;2.00;77.90;;;2.52;65.75;97065.19;5104500;28;20051;-45
2021/01/02 01:46:13;;;;;;;20.27;10.10;;;2.00;78.20;;;2.50;66.09;97069.75;5104054;28;20044;-46
2021/01/02 01:49:06;;;;;;;21.03;10.47;;;2.00;78.30;;;2.47;65.54;97073.47;5104277;28;20048;-45
2021/01/02 01:51:59;;;;;;;17.77;10.63;;;2.00;78.60;;;2.48;66.02;97069.03;5104009;28;20244;-45
2021/01/02 01:54:49;;;;;;;16.83;9.70;;;2.00;78.70;;;2.48;66.10;97071.66;5104372;28;20050;-45
2021/01/02 01:57:24;;;;;;;24.33;12.13;;;2.00;78.60;;;2.46;66.25;97071.81;5085604;28;20078;-49
2021/01/02 01:59:57;;;;;;;19.47;11.13;;;2.00;78.80;;;2.47;65.92;97068.22;5086658;28;20051;-45
2021/01/02 02:02:45;;;;;;;21.67;11.83;;;2.00;78.70;;;2.48;66.20;97069.03;5085766;28;20054;-46
2021/01/02 02:05:18;;;;;;;17.60;10.83;;;2.00;79.00;;;2.50;66.56;97069.75;5085225;28;20062;-49
2021/01/02 02:08:04;;;;;;;21.67;10.93;;;2.00;78.60;;;2.53;66.04;97072.13;5086298;28;20058;-46
2021/01/02 02:10:42;;;;;;;23.97;12.50;;;2.10;79.00;;;2.56;66.60;97066.63;5103853;28;20281;-47
2021/01/02 02:13:19;;;;;;;23.07;11.10;;;2.20;78.70;;;2.59;66.21;97068.16;5087036;28;20105;-48
2021/01/02 02:15:53;;;;;;;21.23;11.33;;;2.20;78.60;;;2.61;66.68;97072.34;5085008;28;20052;-49
2021/01/02 02:18:29;;;;;;;22.70;11.73;;;2.30;78.80;;;2.65;66.51;97072.91;5085903;28;20044;-47
2021/01/02 02:21:00;;;;;;;22.63;11.70;;;2.30;78.90;;;2.69;66.67;97079.59;5103448;28;20048;-46
2021/01/02 02:23:50;;;;;;;22.53;12.73;;;2.40;78.70;;;2.73;66.57;97081.00;5103910;28;20062;-46
2021/01/02 02:26:23;;;;;;;22.83;11.40;;;2.40;78.90;;;2.71;66.68;97078.50;5085834;28;20109;-47
2021/01/02 02:28:53;;;;;;;21.57;11.27;;;2.40;78.50;;;2.73;66.69;97073.97;5103642;28;20056;-50
2021/01/02 02:31:24;;;;;;;25.30;12.37;;;2.40;78.60;;;2.73;66.50;97073.97;5102799;28;20054;-46
2021/01/02 02:34:03;;;;;;;24.93;13.50;;;2.40;78.60;;;2.73;66.26;97070.50;5103487;28;20044;-47
2021/01/02 02:36:35;;;;;;;24.30;13.20;;;2.30;79.00;;;2.66;66.88;97069.34;5103170;28;20337;-50
2021/01/02 02:39:12;;;;;;;27.20;13.73;;;2.20;80.30;;;2.65;66.67;97080.81;5085002;28;20044;-46
2021/01/02 02:41:52;;;;;;;23.20;11.73;;;2.20;79.70;;;2.64;66.75;97079.97;5103008;28;20048;-46
2021/01/02 02:44:25;;;;;;;30.50;14.13;;;2.20;79.60;;;2.65;67.23;97075.56;5103259;28;20054;-46
2021/01/02 02:46:57;;;;;;;24.48;14.00;;;2.20;80.40;;;2.64;67.08;97069.47;5101915;28;20052;-46
2021/01/02 02:49:30;;;;;;;24.07;13.40;;;2.20;79.70;;;2.64;67.07;97074.72;5085856;28;20059;-46
2021/01/02 02:52:13;;;;;;;24.80;14.33;;;2.20;79.70;;;2.66;67.04;97072.81;5103225;28;20362;-47
2021/01/02 02:54:41;;;;;;;31.03;13.00;;;2.30;79.60;;;2.69;66.85;97074.34;5103118;28;20062;-47
2021/01/02 02:57:10;;;;;;;28.10;13.80;;;2.30;79.50;;;2.72;67.10;97074.09;5085017;28;20048;-50
2021/01/02 02:59:37;;;;;;;26.30;13.87;;;2.40;79.50;;;2.74;66.93;97080.06;5103062;28;20235;-47
2021/01/02 03:02:09;;;;;;;28.10;14.50;;;2.40;79.30;;;2.76;66.90;97083.38;5102967;28;20048;-46
2021/01/02 03:04:37;;;;;;;26.40;13.20;;;2.40;79.50;;;2.76;66.65;97073.69;5102960;28;20040;-46
2021/01/02 03:07:05;;;;;;;27.13;14.37;;;2.40;79.40;;;2.78;67.17;97076.22;5084738;28;20058;-46
2021/01/02 03:09:34;;;;;;;32.00;14.97;;;2.40;79.30;;;2.77;66.51;97082.41;5085170;28;20058;-46
2021/01/02 03:12:02;;;;;;;30.60;15.47;;;2.40;79.40;;;2.76;66.92;97084.22;5102952;28;20044;-47
2021/01/02 03:14:30;;;;;;;32.37;15.17;;;2.40;79.60;;;2.75;66.83;97089.59;5102720;28;20039;-46
2021/01/02 03:16:58;;;;;;;28.67;14.10;;;2.30;79.80;;;2.73;67.13;97084.50;5102278;28;20050;-50
2021/01/02 03:19:32;;;;;;;31.57;14.43;;;2.30;80.00;;;2.73;67.28;97086.25;5084185;28;20060;-47
2021/01/02 03:22:00;;;;;;;31.80;13.80;;;2.30;80.20;;;2.73;67.13;97087.13;5102678;28;20055;-48
2021/01/02 03:24:28;;;;;;;29.27;13.67;;;2.30;80.00;;;2.75;67.17;97086.97;5102617;28;20348;-46
2021/01/02 03:26:55;;;;;;;35.00;16.10;;;2.40;79.90;;;2.76;67.44;97088.66;5102013;28;20239;-47
2021/01/02 03:29:23;;;;;;;28.30;13.83;;;2.30;79.80;;;2.77;67.30;97087.66;5102521;28;20348;-48
2021/01/02 03:31:50;;;;;;;30.60;14.30;;;2.30;79.80;;;2.75;67.04;97082.56;5102525;28;20156;-46
2021/01/02 03:34:17;;;;;;;31.53;15.10;;;2.30;80.00;;;2.75;67.23;97077.31;5102605;28;20044;-46
2021/01/02 03:36:45;;;;;;;32.57;16.70;;;2.40;80.10;;;2.73;67.08;97079.22;5102145;28;20044;-50
2021/01/02 03:39:12;;;;;;;30.57;16.27;;;2.30;80.10;;;2.72;67.25;97074.09;5101681;28;20048;-48
2021/01/02 03:41:39;;;;;;;29.57;15.43;;;2.20;80.30;;;2.72;67.10;97084.59;5102438;28;20054;-47
2021/01/02 03:44:07;;;;;;;29.63;13.97;;;2.20;80.40;;;2.71;67.35;97078.50;5102328;28;20058;-50
2021/01/02 03:46:35;;;;;;;35.10;16.33;;;2.20;80.50;;;2.71;66.92;97075.03;5101610;28;20056;-47
2021/01/02 03:49:02;;;;;;;35.30;15.60;;;2.30;80.70;;;2.69;67.43;97071.69;5102217;28;20047;-46
2021/01/02 03:51:30;;;;;;;34.67;15.93;;;2.20;80.70;;;2.64;67.39;97064.22;5102208;28;20044;-49
2021/01/02 03:53:57;;;;;;;36.27;16.30;;;2.10;81.20;;;2.64;67.10;97068.63;5101072;28;20048;-46
2021/01/02 03:56:25;;;;;;;38.07;16.47;;;2.10;81.30;;;2.59;67.54;97060.28;5101631;28;20044;-48
2021/01/02 03:58:53;;;;;;;33.07;16.40;;;2.00;82.30;;;2.51;67.96;97067.00;5102124;28;20048;-46
2021/01/02 04:01:20;;;;;;;34.40;16.77;;;2.00;82.00;;;2.51;67.95;97069.63;5102191;28;20042;-48
2021/01/02 04:03:48;;;;;;;33.23;15.93;;;2.00;81.70;;;2.55;67.76;97062.31;5102251;28;20047;-48
2021/01/02 04:06:24;;;;;;;29.73;15.80;;;2.10;81.60;;;2.55;67.70;97072.84;5101642;28;20044;-46
2021/01/02 04:08:52;;;;;;;35.93;17.20;;;2.10;81.70;;;2.55;67.42;97071.03;5102093;28;20040;-45
2021/01/02 04:11:19;;;;;;;31.37;16.57;;;2.10;81.60;;;2.54;68.37;97061.50;5084129;28;20054;-46
2021/01/02 04:13:47;;;;;;;30.23;14.80;;;2.10;82.30;;;2.53;67.69;97075.59;5101888;28;20366;-47
2021/01/02 04:16:14;;;;;;;31.63;14.20;;;2.00;81.80;;;2.54;67.71;97069.38;5101932;28;20048;-46
2021/01/02 04:18:43;;;;;;;28.57;14.37;;;2.00;81.80;;;2.51;67.83;97066.16;5100582;28;20048;-46
2021/01/02 04:21:13;;;;;;;30.60;14.87;;;2.00;81.90;;;2.48;68.33;97071.66;5084401;28;20052;-45
2021/01/02 04:23:41;;;;;;;27.43;15.57;;;1.90;81.90;;;2.47;67.74;97060.31;5101637;28;20048;-46
2021/01/02 04:26:08;;;;;;;32.03;13.77;;;2.00;82.40;;;2.43;67.90;97064.16;5101477;28;20221;-47
2021/01/02 04:28:35;;;;;;;28.83;16.20;;;1.90;82.80;;;2.39;68.15;97069.81;5083541;28;20054;-46
2021/01/02 04:31:03;;;;;;;30.50;15.10;;;1.70;83.00;;;2.35;67.86;97067.41;5101503;28;20058;-48
2021/01/02 04:33:30;;;;;;;27.47;14.43;;;1.70;83.20;;;2.33;67.97;97063.25;5099464;28;20043;-47
2021/01/02 04:35:58;;;;;;;31.03;15.53;;;1.80;82.90;;;2.34;68.25;97064.91;5101294;28;20055;-46
2021/01/02 04:38:26;;;;;;;35.53;16.27;;;1.80;82.70;;;2.35;68.09;97071.84;5102052;28;20066;-48
2021/01/02 04:40:57;;;;;;;30.30;14.57;;;1.80;82.70;;;2.33;68.30;97065.88;5101875;28;20043;-47
2021/01/02 04:43:26;;;;;;;28.57;14.17;;;1.80;82.80;;;2.35;67.92;97066.59;5067526;28;20070;-47
2021/01/02 04:45:54;;;;;;;36.47;14.70;;;1.80;82.60;;;2.36;68.23;97065.59;5101066;28;20052;-46
2021/01/02 04:48:21;;;;;;;33.60;15.80;;;1.80;82.60;;;2.37;68.30;97067.28;5083575;28;20052;-46
2021/01/02 04:50:49;;;;;;;45.67;17.67;;;1.90;82.60;;;2.34;68.51;97070.16;5101511;28;20048;-49
2021/01/02 04:53:17;;;;;;;42.43;17.70;;;1.90;82.60;;;2.33;68.17;97077.22;5083954;28;20048;-48
2021/01/02 04:55:45;;;;;;;40.37;17.23;;;1.80;82.70;;;2.36;68.33;97070.88;5085136;28;20044;-46
2021/01/02 04:58:18;;;;;;;49.63;21.57;;;1.80;82.70;;;2.36;68.63;97076.13;5105438;28;20048;-46
2021/01/02 05:00:48;;;;;;;58.63;22.43;;;1.80;82.90;;;2.33;68.40;97076.38;5104966;28;20058;-46
2021/01/02 05:03:15;;;;;;;45.90;26.03;;;1.80;83.10;;;2.30;68.59;97076.63;5105426;28;20044;-48
2021/01/02 05:05:48;;;;;;;40.80;19.90;;;1.70;83.30;;;2.33;68.63;97073.75;5104881;28;20044;-45
2021/01/02 05:08:15;;;;;;;37.67;16.40;;;1.90;83.20;;;2.38;68.75;97081.25;5087821;28;20058;-46
2021/01/02 05:11:17;;;;;;;40.77;18.53;;;2.00;82.80;;;2.41;68.72;97081.84;5105249;28;20048;-47
2021/01/02 05:13:45;;;;;;;36.10;15.73;;;2.10;82.90;;;2.45;68.65;97085.06;5044945;28;20056;-46
2021/01/02 05:16:34;;;;;;;39.03;17.33;;;2.10;82.20;;;2.46;68.63;97087.56;5104549;28;20246;-45
2021/01/02 05:19:08;;;;;;;40.60;18.23;;;2.10;82.20;;;2.49;68.30;97089.94;5088480;28;20044;-43
2021/01/02 05:21:43;;;;;;;35.47;17.37;;;2.10;82.20;;;2.52;68.76;97083.59;5104815;28;20052;-44
2021/01/02 05:24:12;;;;;;;32.80;17.40;;;2.20;82.10;;;2.54;68.70;97085.16;5088132;28;20046;-43
2021/01/02 05:26:54;;;;;;;34.30;16.47;;;2.20;81.80;;;2.57;68.33;97086.69;5104432;28;20055;-42
2021/01/02 05:29:27;;;;;;;33.93;14.40;;;2.20;81.90;;;2.58;68.43;97096.25;5104924;28;20044;-42
2021/01/02 05:32:03;;;;;;;40.73;18.20;;;2.20;81.80;;;2.60;68.54;97089.06;5118021;22;20051;-47
2021/01/02 05:34:33;;;;;;;34.37;17.83;;;2.20;81.50;;;2.61;68.05;97092.53;5104594;28;20048;-46
2021/01/02 05:37:06;;;;;;;42.90;16.90;;;2.20;81.60;;;2.61;68.37;97090.72;5104423;28;20050;-48
2021/01/02 05:39:49;;;;;;;44.43;18.17;;;2.30;81.70;;;2.63;68.35;97095.88;5104462;28;20054;-46
2021/01/02 05:42:20;;;;;;;40.77;18.57;;;2.30;81.80;;;2.65;68.31;97097.41;5104639;28;20273;-46
2021/01/02 05:44:48;;;;;;;38.27;16.63;;;2.30;81.80;;;2.68;68.49;97096.34;5087046;28;20288;-47
2021/01/02 05:47:20;;;;;;;42.30;18.20;;;2.30;81.60;;;2.70;68.42;97089.97;5104542;28;20247;-46
2021/01/02 05:49:50;;;;;;;42.53;18.33;;;2.30;81.50;;;2.71;68.73;97089.00;5104603;28;20047;-46
2021/01/02 05:52:18;;;;;;;45.90;20.83;;;2.40;81.50;;;2.73;68.34;97086.25;5103779;28;20247;-47
2021/01/02 05:54:52;;;;;;;46.33;19.57;;;2.40;81.50;;;2.76;68.76;97088.66;5103881;28;20044;-46
2021/01/02 05:57:25;;;;;;;;;;;2.40;81.50;;;2.75;68.33;97093.09;5104811;28;20046;-48
2021/01/02 05:59:58;;;;;;;42.57;17.47;;;2.40;82.00;;;2.73;68.49;97086.25;5086324;28;20123;-48
2021/01/02 06:02:32;;;;;;;60.95;18.92;;;2.40;81.50;;;2.69;68.46;97092.72;5084373;28;20040;-45
2021/01/02 06:05:10;;;;;;;44.53;18.33;;;2.30;81.60;;;2.69;68.29;97098.81;5085316;28;20054;-45
2021/01/02 06:07:40;;;;;;;40.80;20.70;;;2.30;81.80;;;2.69;68.69;97103.25;5102695;28;20243;-47
2021/01/02 06:10:09;;;;;;;46.07;20.73;;;2.40;81.80;;;2.70;68.44;97105.75;5069595;28;20044;-46
2021/01/02 06:12:42;;;;;;;49.07;19.27;;;2.40;81.70;;;2.73;68.55;97107.28;5086399;28;20040;-45
2021/01/02 06:15:16;;;;;;;43.73;18.67;;;2.40;81.60;;;2.73;68.55;97104.66;5102629;28;20040;-48
2021/01/02 06:17:49;;;;;;;;;;;2.40;81.50;;;2.70;68.54;97108.38;5104530;28;20047;-46
2021/01/02 06:20:18;;;;;;;30.27;11.97;;;2.40;82.10;;;2.66;68.14;97106.13;5103986;28;20219;-47
2021/01/02 06:22:45;;;;;;;29.23;13.63;;;2.30;81.80;;;2.65;68.55;97102.66;5086310;28;20044;-47
2021/01/02 06:25:14;;;;;;;27.87;12.33;;;2.30;81.70;;;2.65;68.56;97097.41;5103383;28;20050;-46
2021/01/02 06:27:44;;;;;;;33.57;13.17;;;2.30;81.70;;;2.65;68.73;97101.84;5103684;28;20046;-46
2021/01/02 06:30:17;;;;;;;31.33;14.17;;;2.30;81.60;;;2.65;68.73;97097.41;5103131;28;20058;-47
2021/01/02 06:32:48;;;;;;;31.17;13.27;;;2.30;81.70;;;2.67;68.95;97099.91;5103704;28;20129;-45
2021/01/02 06:35:23;;;;;;;34.13;13.23;;;2.30;81.50;;;2.67;68.30;97102.53;5103127;28;20043;-48
2021/01/02 06:37:56;;;;;;;28.47;14.43;;;2.40;81.40;;;2.65;68.72;97099.19;5103630;28;20048;-46
2021/01/02 06:40:33;;;;;;;30.13;12.97;;;2.40;81.20;;;2.66;68.31;97098.25;5103568;28;20044;-46
2021/01/02 06:43:07;;;;;;;31.73;13.53;;;2.30;81.40;;;2.64;68.29;97095.75;5103482;28;20262;-46
2021/01/02 06:45:41;;;;;;;89.70;15.38;;;2.30;81.50;;;2.58;68.36;97095.41;5102976;28;20058;-46
2021/01/02 06:48:20;;;;;;;39.20;15.20;;;2.10;82.00;;;2.58;68.32;97098.03;5103491;28;20054;-47
2021/01/02 06:51:28;;;;;;;39.13;15.63;;;2.10;82.30;;;2.47;68.22;97104.16;5103289;28;20070;-47
2021/01/02 06:53:57;;;;;;;39.77;16.13;;;2.00;83.00;;;2.46;68.25;97105.97;5102447;28;20052;-46
2021/01/02 06:56:30;;;;;;;44.30;16.40;;;2.00;82.70;;;2.43;68.81;97100.13;5102679;28;20040;-48
2021/01/02 06:58:57;;;;;;;39.80;15.43;;;2.00;82.90;;;2.38;68.80;97095.22;5102579;28;20067;-46
2021/01/02 07:01:26;;;;;;;48.03;14.57;;;1.90;83.00;;;2.34;68.70;97099.06;5101548;28;20048;-46
2021/01/02 07:03:53;;;;;;;44.17;14.67;;;1.80;83.30;;;2.32;68.86;97090.47;5102417;28;20074;-46
2021/01/02 07:06:24;;;;;;;31.70;15.00;;;1.80;83.20;;;2.31;68.92;97097.50;5102938;28;20044;-47
2021/01/02 07:08:55;;;;;;;43.67;15.60;;;1.80;83.30;;;2.34;69.33;97094.63;5102898;28;20047;-47
2021/01/02 07:11:35;;;;;;;45.83;15.27;;;1.90;83.40;;;2.36;68.77;97095.38;5102955;28;20380;-46
2021/01/02 07:14:17;;;;;;;70.07;17.63;;;2.00;83.10;;;2.33;69.29;97107.91;5103296;28;20048;-45
2021/01/02 07:16:50;;;;;;;42.07;16.03;;;1.90;83.10;;;2.25;68.88;97103.25;5083711;28;20048;-45
2021/01/02 07:19:24;;;;;;;66.17;16.27;;;1.80;83.40;;;2.27;68.73;97113.63;5102510;28;20040;-45
2021/01/02 07:22:20;;;;;;;33.50;14.73;;;1.80;83.60;;;2.24;69.01;97121.78;5102739;28;20058;-49
2021/01/02 07:25:03;;;;;;;45.07;16.03;;;1.80;84.00;;;2.17;69.55;97117.00;5092586;28;20064;-46
2021/01/02 07:27:39;;;;;;;37.77;14.97;;;1.70;84.30;;;2.17;69.14;97113.53;5083768;28;20048;-49
2021/01/02 07:30:08;;;;;;;35.90;16.00;;;1.70;84.10;;;2.20;69.33;97113.28;5102697;28;20063;-47
2021/01/02 07:32:41;;;;;;;38.57;16.33;;;1.80;84.00;;;2.22;69.15;97118.44;5101354;28;20048;-46
2021/01/02 07:35:15;;;;;;;36.05;16.15;;;1.80;83.80;;;2.24;69.05;97117.34;5101003;28;20057;-48
2021/01/02 07:37:45;;;;;;;31.93;15.03;;;1.80;83.60;;;2.28;69.48;97112.69;5102631;28;20044;-46
2021/01/02 07:40:18;;;;;;;46.80;16.60;;;1.90;83.60;;;2.34;69.19;97114.81;5102182;28;20281;-49
2021/01/02 07:42:50;;;;;;;41.47;15.60;;;2.00;83.30;;;2.36;69.47;97111.13;5101725;28;20058;-47
2021/01/02 07:45:26;;;;;;;30.77;15.57;;;2.00;83.10;;;2.40;69.62;97119.56;5101509;28;20050;-47
2021/01/02 07:47:57;;;;;;;28.70;13.63;;;2.10;83.20;;;2.44;69.31;97114.91;5085105;28;20070;-48
2021/01/02 07:50:29;;;;;;;34.03;15.63;;;2.10;82.90;;;2.48;69.16;97114.56;5102129;28;20094;-48
2021/01/02 07:53:06;;;;;;;32.87;14.73;;;2.10;82.80;;;2.50;68.91;97117.03;5100585;28;20052;-47
2021/01/02 07:55:34;;;;;;;37.43;16.63;;;2.10;82.50;;;2.50;69.32;97122.28;5099289;28;20048;-46
2021/01/02 07:58:03;;;;;;;32.93;14.33;;;2.20;82.50;;;2.53;68.89;97119.44;5099426;28;20050;-47
2021/01/02 08:00:31;;;;;;;28.83;14.57;;;2.20;82.50;;;2.53;68.93;97129.94;5083577;28;20251;-46
2021/01/02 08:03:05;;;;;;;29.33;14.60;;;2.20;82.50;;;2.53;69.00;97125.50;5101025;28;20047;-47
2021/01/02 08:05:33;;;;;;;28.47;16.07;;;2.20;82.60;;;2.55;69.04;97122.78;5101660;28;20048;-47
2021/01/02 08:08:02;;;;;;;34.13;16.17;;;2.20;82.30;;;2.58;69.25;97126.94;5102117;28;20059;-48
2021/01/02 08:10:30;;;;;;;30.37;16.30;;;2.20;82.30;;;2.60;69.23;97128.50;5067289;28;20058;-42
2021/01/02 08:13:01;;;;;;;26.63;14.30;;;2.30;82.30;;;2.62;69.06;97123.94;5102017;28;20046;-42
2021/01/02 08:15:35;;;;;;;29.63;14.73;;;2.30;82.30;;;2.64;69.10;97123.84;5101504;28;20213;-45
2021/01/02 08:18:08;;;;;;;24.58;14.10;;;2.30;82.10;;;2.65;69.30;97122.84;5101648;28;20052;-41
2021/01/02 08:20:37;;;;;;;28.27;16.40;;;2.30;82.10;;;2.64;69.15;97129.09;5084400;28;20048;-42
2021/01/02 08:23:13;;;;;;;32.97;15.18;;;2.30;82.10;;;2.60;69.40;97128.50;5101273;28;20248;-43
2021/01/02 08:25:42;;;;;;;29.70;15.23;;;2.20;82.00;;;2.59;69.29;97124.19;5101394;28;20052;-43
2021/01/02 08:28:11;;;;;;;31.67;15.13;;;2.20;82.20;;;2.63;68.85;97127.41;5084322;28;20051;-41
2021/01/02 08:30:38;;;;;;;31.67;17.17;;;2.30;83.30;;;2.66;69.39;97135.06;5104033;28;20520;-42
2021/01/02 08:33:11;;;;;;;34.47;17.93;;;2.30;82.30;;;2.68;69.02;97133.97;5105923;28;20044;-41
2021/01/02 08:35:43;;;;;;;36.55;15.85;;;2.40;82.20;;;2.69;69.46;97129.53;5105470;28;20044;-41
2021/01/02 08:38:13;;;;;;;35.50;14.80;;;2.40;81.90;;;2.65;69.34;97128.13;5105760;28;20066;-42
2021/01/02 08:40:46;;;;;;;31.33;16.60;;;2.20;82.00;;;2.62;69.19;97123.09;5105823;28;20050;-44
2021/01/02 08:43:27;;;;;;;37.37;19.40;;;2.20;82.40;;;2.59;69.20;97126.81;5104773;28;20047;-42
2021/01/02 08:46:03;;;;;;;32.07;17.67;;;2.30;82.60;;;2.59;69.67;97136.50;5105309;28;20048;-42
2021/01/02 08:48:31;;;;;;;31.63;15.40;;;2.30;82.50;;;2.60;69.13;97130.28;5105070;28;20058;-42
2021/01/02 08:50:59;;;;;;;32.33;14.60;;;2.30;82.20;;;2.59;69.50;97139.97;5105644;28;20052;-44
2021/01/02 08:53:32;;;;;;;32.33;14.70;;;2.30;81.90;;;2.58;69.10;97133.03;5105580;28;20048;-42
2021/01/02 08:56:24;;;;;;;33.57;16.30;;;2.30;82.20;;;2.57;70.11;97141.88;5087098;28;20050;-42
2021/01/02 08:58:53;;;;;;;31.60;16.40;;;2.30;82.50;;;2.52;69.02;97141.41;5105544;28;20058;-41
2021/01/02 09:01:20;;;;;;;35.67;17.93;;;2.10;82.50;;;2.48;70.08;97140.84;5104128;28;20044;-41
2021/01/02 09:03:48;;;;;;;26.20;15.80;;;2.20;82.80;;;2.47;69.88;97138.31;5104924;28;20272;-42
2021/01/02 09:06:26;;;;;;;29.03;15.70;;;2.10;82.60;;;2.45;69.94;97146.31;5102152;28;20048;-42
2021/01/02 09:08:59;;;;;;;30.73;15.43;;;2.10;83.00;;;2.47;69.57;97135.69;5103788;28;20048;-43
2021/01/02 09:11:28;;;;;;;31.90;14.90;;;2.10;83.00;;;2.44;70.15;97136.75;5104444;28;20048;-44
2021/01/02 09:14:06;;;;;;;32.73;15.50;;;2.10;83.50;;;2.40;70.05;97137.97;5103078;28;20048;-42
2021/01/02 09:16:33;;;;;;;29.80;15.00;;;2.00;83.30;;;2.33;69.98;97137.63;5086860;28;20054;-41
2021/01/02 09:19:02;;;;;;;27.00;15.13;;;2.00;83.10;;;2.35;69.98;97137.50;5105310;28;20050;-42
2021/01/02 09:21:30;;;;;;;25.40;14.60;;;2.00;83.00;;;2.36;69.90;97140.03;5105082;28;20040;-44
2021/01/02 09:24:00;;;;;;;26.07;13.83;;;2.10;83.00;;;2.40;70.07;97140.59;5104672;28;20048;-42
2021/01/02 09:26:32;;;;;;;27.20;15.30;;;2.20;82.70;;;2.43;70.45;97142.16;5086571;28;20044;-44
2021/01/02 09:29:13;;;;;;;23.20;14.23;;;2.30;82.50;;;2.47;70.24;97147.03;5087491;28;20040;-43
2021/01/02 09:31:41;;;;;;;27.77;15.50;;;2.30;82.20;;;2.52;70.21;97144.03;5104627;28;20048;-42
2021/01/02 09:34:09;;;;;;;27.13;14.97;;;2.40;81.90;;;2.57;69.72;97147.13;5104378;28;20055;-42
2021/01/02 09:36:38;;;;;;;27.23;15.17;;;2.40;81.40;;;2.60;70.04;97143.41;5103847;28;20054;-42
2021/01/02 09:39:06;;;;;;;28.13;16.03;;;2.40;81.60;;;2.68;69.41;97148.91;5103778;28;20040;-43
2021/01/02 09:41:34;;;;;;;30.20;16.00;;;2.40;81.50;;;2.71;69.82;97151.28;5103575;28;20087;-43
2021/01/02 09:44:02;;;;;;;23.83;13.53;;;2.50;81.30;;;2.74;69.53;97153.66;5103805;28;20050;-43
2021/01/02 09:46:51;;;;;;;33.60;16.73;;;2.50;81.10;;;2.75;69.13;97152.69;5088682;28;20052;-43
2021/01/02 09:49:19;;;;;;;29.67;13.97;;;2.50;81.40;;;2.80;69.72;97147.06;5104045;28;20065;-42
2021/01/02 09:51:46;;;;;;;25.70;14.13;;;2.60;81.30;;;2.82;69.74;97145.97;5104346;28;20052;-44
2021/01/02 09:54:14;;;;;;;25.03;14.87;;;2.60;80.80;;;2.84;69.54;97145.88;5104487;28;20451;-46
2021/01/02 09:56:45;;;;;;;23.67;14.03;;;2.60;80.90;;;2.89;69.56;97151.56;5102651;28;20244;-44
2021/01/02 09:59:15;;;;;;;22.57;13.33;;;2.70;81.00;;;2.90;69.66;97153.25;5076711;28;20048;-43
2021/01/02 10:01:42;;;;;;;22.43;13.60;;;2.70;81.10;;;2.97;69.58;97151.78;5081767;28;20044;-42
2021/01/02 10:04:10;;;;;;;23.97;13.67;;;2.70;80.50;;;2.95;69.55;97157.16;5082616;28;20058;-42
2021/01/02 10:06:44;;;;;;;24.13;13.80;;;2.80;80.50;;;3.00;69.38;97158.59;5093103;28;20062;-43
2021/01/02 10:09:15;;;;;;;23.83;12.30;;;2.80;80.40;;;3.03;69.36;97161.81;5101022;28;20052;-44
2021/01/02 10:11:43;;;;;;;22.20;12.57;;;2.80;80.20;;;3.00;69.30;97151.53;5094661;28;20047;-41
2021/01/02 10:14:11;;;;;;;22.47;13.27;;;2.80;79.70;;;2.95;69.13;97157.16;5102495;28;20047;-43
2021/01/02 10:16:39;;;;;;;25.13;14.23;;;2.80;79.80;;;3.00;69.21;97159.41;5102313;28;20040;-42
2021/01/02 10:19:09;;;;;;;22.10;14.23;;;2.80;80.00;;;3.04;69.09;97152.94;5102307;28;20115;-44
2021/01/02 10:21:37;;;;;;;25.87;12.93;;;2.90;80.10;;;3.09;69.00;97147.31;5101972;28;20243;-42
2021/01/02 10:24:10;;;;;;;25.10;12.55;;;2.90;79.90;;;3.08;69.04;97143.00;5102916;28;20378;-45
2021/01/02 10:26:37;;;;;;;20.37;13.27;;;2.90;79.90;;;3.10;68.91;97147.19;5084476;28;20044;-45
2021/01/02 10:29:05;;;;;;;18.20;11.10;;;2.90;79.40;;;3.03;68.76;97139.94;5083654;28;20058;-47
2021/01/02 10:31:33;;;;;;;19.33;11.43;;;2.80;79.00;;;2.99;68.85;97141.97;5101477;28;20047;-43
2021/01/02 10:34:00;;;;;;;19.60;10.97;;;2.70;79.70;;;2.98;68.64;97134.22;5101162;28;20044;-43
2021/01/02 10:36:28;;;;;;;20.87;11.77;;;2.60;79.70;;;3.00;68.74;97134.91;5100269;28;20055;-43
2021/01/02 10:38:55;;;;;;;20.77;11.43;;;2.70;80.00;;;3.04;68.63;97128.44;5084081;28;20047;-45
2021/01/02 10:41:23;;;;;;;20.17;11.03;;;2.80;79.60;;;3.05;68.75;97125.69;5102524;28;20048;-45
2021/01/02 10:43:51;;;;;;;20.07;11.37;;;2.90;79.90;;;3.04;68.70;97121.38;5102002;28;20051;-43
2021/01/02 10:46:19;;;;;;;20.87;12.13;;;2.80;79.20;;;3.04;68.69;97125.81;5102030;28;20032;-43